createdAt,value
2018-04-10T00:01:08.227Z,10.20
2018-04-10T00:04:06.905Z,10.00
2018-04-10T00:07:04.541Z,9.90
2018-04-10T00:09:34.883Z,9.90
2018-04-10T00:12:05.776Z,9.80
2018-04-10T00:14:36.996Z,9.80
2018-04-10T00:17:07.144Z,9.70
2018-04-10T00:26:30.191Z,9.50
2018-04-10T00:29:00.642Z,9.40
2018-04-10T00:34:32.692Z,9.00
2018-04-10T00:37:30.458Z,8.80
2018-04-10T00:40:21.974Z,8.60
2018-04-10T00:42:52.063Z,8.50
2018-04-10T00:45:22.412Z,8.40
2018-04-10T00:50:59.145Z,8.30
2018-04-10T00:54:00.143Z,8.20
2018-04-10T00:56:33.709Z,8.20
2018-04-10T00:59:08.261Z,8.10
2018-04-10T01:02:02.473Z,8.10
2018-04-10T01:10:59.754Z,7.90
2018-04-10T01:13:31.832Z,7.90
2018-04-10T01:16:01.934Z,7.90
2018-04-10T01:18:33.007Z,7.90
2018-04-10T01:21:03.863Z,7.90
2018-04-10T01:23:33.947Z,7.90
2018-04-10T01:26:04.388Z,8.00
2018-04-10T01:28:34.751Z,8.00
2018-04-10T01:31:04.871Z,8.10
2018-04-10T01:33:35.165Z,8.20
2018-04-10T01:36:05.457Z,8.20
2018-04-10T01:38:35.214Z,8.30
2018-04-10T01:41:05.327Z,8.30
2018-04-10T01:43:35.683Z,8.20
2018-04-10T01:46:05.763Z,8.20
2018-04-10T01:48:35.857Z,8.20
2018-04-10T01:51:06.732Z,8.40
2018-04-10T01:53:37.583Z,8.40
2018-04-10T01:56:08.419Z,8.40
2018-04-10T01:58:38.731Z,8.40
2018-04-10T02:01:08.487Z,8.40
2018-04-10T02:03:38.591Z,8.40
2018-04-10T02:06:08.907Z,8.50
2018-04-10T02:08:39.031Z,8.50
2018-04-10T02:11:09.327Z,8.50
2018-04-10T02:13:39.415Z,8.50
2018-04-10T02:16:09.167Z,8.50
2018-04-10T02:18:39.355Z,8.50
2018-04-10T02:21:09.527Z,8.60
2018-04-10T02:23:39.615Z,8.60
2018-04-10T02:26:10.480Z,8.70
2018-04-10T02:28:40.868Z,8.70
2018-04-10T02:31:10.956Z,8.80
2018-04-10T02:33:41.099Z,8.80
2018-04-10T02:36:11.200Z,8.80
2018-04-10T02:38:42.303Z,8.70
2018-04-10T02:41:12.873Z,8.70
2018-04-10T02:43:43.296Z,8.70
2018-04-10T02:46:14.455Z,8.60
2018-04-10T02:48:44.853Z,8.60
2018-04-10T02:51:14.984Z,8.70
2018-04-10T02:53:45.480Z,8.60
2018-04-10T02:56:15.948Z,8.60
2018-04-10T02:58:46.594Z,8.60
2018-04-10T03:01:17.085Z,8.70
2018-04-10T03:03:48.846Z,8.70
2018-04-10T03:06:19.111Z,8.70
2018-04-10T03:08:49.940Z,8.70
2018-04-10T03:11:20.127Z,8.70
2018-04-10T03:13:50.858Z,8.70
2018-04-10T03:16:21.103Z,8.70
2018-04-10T03:18:51.534Z,8.70
2018-04-10T03:21:21.896Z,8.70
2018-04-10T03:23:52.747Z,8.60
2018-04-10T03:26:23.636Z,8.60
2018-04-10T03:28:53.751Z,8.50
2018-04-10T03:31:24.010Z,8.60
2018-04-10T03:33:54.874Z,8.50
2018-04-10T03:36:25.747Z,8.40
2018-04-10T03:38:55.865Z,8.40
2018-04-10T03:41:25.936Z,8.30
2018-04-10T03:43:56.328Z,8.20
2018-04-10T03:46:26.695Z,8.20
2018-04-10T03:48:56.825Z,8.10
2018-04-10T03:51:26.955Z,8.10
2018-04-10T03:53:57.091Z,8.00
2018-04-10T03:56:27.209Z,8.00
2018-04-10T03:58:57.586Z,8.00
2018-04-10T04:01:27.673Z,7.90
2018-04-10T04:03:57.798Z,7.80
2018-04-10T04:06:27.863Z,7.70
2018-04-10T04:08:58.006Z,7.70
2018-04-10T04:11:28.031Z,7.60
2018-04-10T04:13:57.921Z,7.50
2018-04-10T04:16:44.931Z,7.50
2018-04-10T04:19:31.668Z,7.50
2018-04-10T04:22:18.247Z,7.50
2018-04-10T04:24:48.332Z,7.60
2018-04-10T04:27:18.626Z,7.60
2018-04-10T04:29:49.478Z,7.60
2018-04-10T04:32:20.350Z,7.70
2018-04-10T04:34:51.206Z,7.60
2018-04-10T04:37:22.078Z,7.50
2018-04-10T04:39:52.182Z,7.50
2018-04-10T04:42:22.063Z,7.50
2018-04-10T04:44:52.396Z,7.50
2018-04-10T04:47:23.278Z,7.50
2018-04-10T04:49:53.372Z,7.50
2018-04-10T04:52:23.514Z,7.50
2018-04-10T04:54:53.595Z,7.50
2018-04-10T04:57:23.691Z,7.60
2018-04-10T04:59:53.775Z,7.70
2018-04-10T05:02:23.883Z,7.70
2018-04-10T05:04:54.029Z,7.70
2018-04-10T05:07:24.763Z,7.80
2018-04-10T05:09:54.886Z,7.90
2018-04-10T05:12:25.289Z,7.90
2018-04-10T05:14:55.390Z,8.00
2018-04-10T05:17:26.279Z,7.80
2018-04-10T05:19:56.413Z,7.80
2018-04-10T05:22:26.502Z,7.80
2018-04-10T05:24:56.887Z,7.70
2018-04-10T05:27:27.736Z,7.60
2018-04-10T05:29:58.633Z,7.60
2018-04-10T05:32:28.903Z,7.60
2018-04-10T05:34:59.023Z,7.70
2018-04-10T05:37:29.406Z,7.70
2018-04-10T05:39:59.201Z,7.80
2018-04-10T05:42:30.249Z,7.90
2018-04-10T05:45:01.391Z,7.90
2018-04-10T05:47:31.533Z,8.00
2018-04-10T05:50:01.640Z,8.20
2018-04-10T05:52:31.735Z,8.30
2018-04-10T05:55:01.846Z,8.50
2018-04-10T05:57:32.647Z,8.80
2018-04-10T06:00:02.508Z,8.80
2018-04-10T06:02:32.791Z,9.00
2018-04-10T06:05:02.890Z,9.20
2018-04-10T06:07:32.969Z,9.40
2018-04-10T06:10:03.824Z,9.70
2018-04-10T06:12:33.854Z,9.60
2018-04-10T06:15:03.602Z,9.80
2018-04-10T06:17:34.486Z,10.10
2018-04-10T06:20:03.630Z,10.00
2018-04-10T06:22:34.536Z,10.20
2018-04-10T06:25:03.995Z,10.20
2018-04-10T06:27:34.086Z,10.30
2018-04-10T06:30:03.853Z,10.50
2018-04-10T06:32:33.952Z,10.60
2018-04-10T06:35:03.705Z,10.60
2018-04-10T06:37:34.074Z,10.70
2018-04-10T06:40:03.841Z,10.70
2018-04-10T06:42:34.936Z,10.90
2018-04-10T06:45:05.784Z,11.00
2018-04-10T06:47:36.123Z,11.00
2018-04-10T06:50:06.432Z,11.00
2018-04-10T06:52:36.536Z,11.10
2018-04-10T06:55:07.572Z,11.60
2018-04-10T06:57:38.421Z,11.70
2018-04-10T07:00:08.831Z,11.70
2018-04-10T07:02:38.916Z,11.80
2018-04-10T07:05:09.229Z,11.80
2018-04-10T07:07:39.318Z,11.90
2018-04-10T07:10:10.196Z,12.20
2018-04-10T07:12:40.308Z,12.20
2018-04-10T07:15:10.482Z,12.20
2018-04-10T07:17:40.917Z,12.20
2018-04-10T07:20:10.990Z,12.20
2018-04-10T07:22:41.271Z,12.10
2018-04-10T07:25:11.084Z,12.30
2018-04-10T07:27:41.213Z,12.40
2018-04-10T07:30:11.463Z,12.50
2018-04-10T07:32:41.546Z,12.50
2018-04-10T07:35:11.850Z,12.40
2018-04-10T07:37:41.928Z,12.40
2018-04-10T07:40:12.044Z,12.30
2018-04-10T07:42:42.353Z,12.50
2018-04-10T07:45:12.461Z,13.00
2018-04-10T07:47:42.543Z,13.30
2018-04-10T07:50:12.662Z,13.60
2018-04-10T07:52:42.726Z,14.00
2018-04-10T07:55:12.594Z,14.30
2018-04-10T07:57:42.948Z,14.60
2018-04-10T08:00:13.510Z,14.80
2018-04-10T08:02:44.377Z,14.70
2018-04-10T08:05:14.688Z,14.70
2018-04-10T08:07:44.786Z,14.80
2018-04-10T08:10:14.883Z,15.00
2018-04-10T08:12:44.955Z,15.30
2018-04-10T08:15:15.089Z,15.70
2018-04-10T08:17:45.348Z,16.00
2018-04-10T08:20:15.713Z,15.90
2018-04-10T08:22:46.015Z,15.90
2018-04-10T08:25:16.111Z,15.70
2018-04-10T08:27:46.212Z,15.70
2018-04-10T08:30:17.074Z,15.80
2018-04-10T08:32:47.175Z,15.80
2018-04-10T08:35:18.002Z,15.80
2018-04-10T08:37:48.872Z,16.00
2018-04-10T08:40:19.155Z,15.90
2018-04-10T08:42:49.235Z,15.90
2018-04-10T08:45:19.198Z,16.00
2018-04-10T08:47:49.938Z,16.00
2018-04-10T08:50:21.370Z,16.10
2018-04-10T08:52:51.465Z,16.40
2018-04-10T08:55:21.728Z,16.80
2018-04-10T08:57:52.363Z,17.30
2018-04-10T09:00:23.001Z,17.60
2018-04-10T09:02:53.657Z,17.70
2018-04-10T09:05:24.302Z,18.10
2018-04-10T09:07:54.944Z,18.50
2018-04-10T09:10:25.876Z,19.00
2018-04-10T09:12:56.514Z,19.10
2018-04-10T09:15:27.152Z,18.90
2018-04-10T09:17:57.780Z,19.00
2018-04-10T09:20:29.215Z,19.00
2018-04-10T09:22:59.860Z,19.00
2018-04-10T09:25:30.778Z,19.00
2018-04-10T09:28:01.411Z,19.00
2018-04-10T09:30:32.275Z,19.00
2018-04-10T09:33:02.903Z,19.20
2018-04-10T09:35:33.335Z,18.90
2018-04-10T09:38:03.991Z,18.90
2018-04-10T09:40:34.644Z,19.10
2018-04-10T09:43:05.313Z,19.20
2018-04-10T09:45:35.950Z,19.10
2018-04-10T09:48:06.801Z,18.90
2018-04-10T09:50:38.226Z,19.50
2018-04-10T09:53:08.857Z,19.50
2018-04-10T09:55:39.733Z,19.70
2018-04-10T09:58:10.560Z,19.70
2018-04-10T10:00:41.259Z,20.00
2018-04-10T10:03:11.894Z,19.90
2018-04-10T10:05:42.546Z,19.90
2018-04-10T10:08:13.958Z,19.70
2018-04-10T10:10:44.666Z,19.60
2018-04-10T10:13:15.036Z,19.90
2018-04-10T10:15:45.694Z,20.20
2018-04-10T10:18:16.783Z,20.50
2018-04-10T10:20:47.450Z,21.10
2018-04-10T10:23:19.195Z,21.00
2018-04-10T10:25:50.199Z,20.90
2018-04-10T10:28:20.725Z,21.50
2018-04-10T10:30:51.390Z,21.90
2018-04-10T10:33:22.076Z,21.70
2018-04-10T10:35:52.719Z,21.50
2018-04-10T10:38:23.368Z,21.50
2018-04-10T10:40:54.015Z,21.50
2018-04-10T10:43:24.672Z,21.70
2018-04-10T10:45:55.323Z,21.70
2018-04-10T10:48:25.959Z,21.50
2018-04-10T10:50:56.608Z,21.50
2018-04-10T10:53:27.305Z,21.80
2018-04-10T10:55:58.232Z,21.90
2018-04-10T10:58:28.872Z,21.90
2018-04-10T11:00:59.543Z,21.60
2018-04-10T11:03:30.143Z,21.70
2018-04-10T11:06:01.331Z,21.60
2018-04-10T11:08:31.964Z,21.60
2018-04-10T11:11:03.418Z,22.30
2018-04-10T11:13:34.259Z,22.30
2018-04-10T11:16:04.915Z,22.80
2018-04-10T11:18:35.547Z,23.10
2018-04-10T11:21:06.396Z,23.20
2018-04-10T11:23:37.054Z,23.00
2018-04-10T11:26:08.483Z,22.60
2018-04-10T11:28:39.124Z,22.50
2018-04-10T11:31:09.465Z,22.40
2018-04-10T11:33:41.061Z,21.20
2018-04-10T11:36:11.916Z,20.40
2018-04-10T11:38:42.574Z,20.30
2018-04-10T11:41:13.510Z,19.40
2018-04-10T11:43:44.362Z,18.90
2018-04-10T11:46:15.531Z,18.60
2018-04-10T11:48:46.170Z,18.60
2018-04-10T11:51:17.125Z,18.30
2018-04-10T11:53:47.753Z,19.00
2018-04-10T11:56:18.444Z,19.90
2018-04-10T11:58:49.844Z,21.70
2018-04-10T12:01:20.818Z,21.70
2018-04-10T12:03:51.430Z,22.10
2018-04-10T12:06:22.081Z,21.60
2018-04-10T12:08:52.703Z,20.80
2018-04-10T12:11:22.684Z,21.00
2018-04-10T12:13:54.107Z,22.10
2018-04-10T12:16:24.780Z,22.10
2018-04-10T12:18:55.407Z,21.80
2018-04-10T12:21:26.067Z,21.20
2018-04-10T12:23:56.718Z,20.70
2018-04-10T12:26:27.346Z,20.50
2018-04-10T12:28:57.989Z,20.40
2018-04-10T12:31:28.653Z,20.10
2018-04-10T12:33:59.332Z,19.80
2018-04-10T12:36:30.800Z,19.00
2018-04-10T12:39:01.184Z,18.90
2018-04-10T12:41:31.845Z,18.70
2018-04-10T12:44:02.497Z,18.20
2018-04-10T12:46:34.195Z,19.10
2018-04-10T12:49:05.894Z,20.10
2018-04-10T12:51:36.546Z,20.10
2018-04-10T12:54:07.190Z,21.30
2018-04-10T12:56:37.842Z,21.90
2018-04-10T12:59:08.422Z,22.30
2018-04-10T13:01:39.073Z,22.40
2018-04-10T13:04:09.748Z,22.50
2018-04-10T13:06:40.398Z,22.50
2018-04-10T13:09:10.841Z,22.60
2018-04-10T13:11:41.494Z,22.50
2018-04-10T13:14:12.165Z,22.30
2018-04-10T13:16:42.820Z,22.00
2018-04-10T13:19:13.527Z,21.60
2018-04-10T13:21:44.361Z,21.70
2018-04-10T13:24:15.050Z,22.20
2018-04-10T13:26:45.718Z,22.60
2018-04-10T13:29:16.384Z,21.40
2018-04-10T13:31:46.693Z,20.10
2018-04-10T13:34:18.124Z,18.30
2018-04-10T13:36:48.783Z,18.20
2018-04-10T13:39:19.609Z,17.90
2018-04-10T13:41:50.197Z,17.30
2018-04-10T13:44:20.865Z,17.80
2018-04-10T13:46:51.475Z,18.80
2018-04-10T13:49:22.898Z,20.30
2018-04-10T13:51:53.594Z,20.30
2018-04-10T13:54:24.268Z,20.40
2018-04-10T13:56:55.674Z,19.60
2018-04-10T13:59:26.336Z,19.50
2018-04-10T14:01:57.285Z,19.30
2018-04-10T14:04:27.740Z,19.20
2018-04-10T14:06:58.165Z,19.10
2018-04-10T14:09:28.820Z,18.40
2018-04-10T14:11:58.910Z,17.40
2018-04-10T14:14:28.701Z,16.70
2018-04-10T14:16:58.819Z,15.90
2018-04-10T14:19:28.918Z,15.10
2018-04-10T14:21:59.846Z,13.20
2018-04-10T14:24:29.946Z,13.10
2018-04-10T14:26:59.982Z,12.60
2018-04-10T14:29:30.319Z,12.20
2018-04-10T14:32:01.243Z,11.40
2018-04-10T14:34:31.120Z,11.30
2018-04-10T14:37:01.029Z,11.00
2018-04-10T14:39:33.034Z,10.80
2018-04-10T14:42:04.289Z,10.20
2018-04-10T14:44:34.132Z,10.10
2018-04-10T14:47:05.072Z,10.10
2018-04-10T14:49:35.877Z,9.90
2018-04-10T14:52:05.760Z,9.60
2018-04-10T14:54:35.882Z,9.50
2018-04-10T14:57:06.261Z,9.20
2018-04-10T14:59:37.432Z,8.70
2018-04-10T15:02:07.585Z,8.70
2018-04-10T15:04:37.687Z,8.60
2018-04-10T15:07:08.898Z,8.20
2018-04-10T15:09:39.976Z,8.20
2018-04-10T15:12:10.411Z,8.10
2018-04-10T15:14:41.011Z,7.90
2018-04-10T15:17:10.935Z,7.80
2018-04-10T15:19:40.825Z,7.80
2018-04-10T15:22:13.429Z,7.60
2018-04-10T15:24:50.136Z,7.50
2018-04-10T15:27:20.102Z,7.20
2018-04-10T15:29:50.635Z,7.00
2018-04-10T15:32:21.189Z,6.80
2018-04-10T15:34:53.364Z,6.60
2018-04-10T15:37:23.867Z,6.50
2018-04-10T15:39:54.315Z,6.40
2018-04-10T15:42:24.445Z,6.30
2018-04-10T15:44:54.846Z,6.20
2018-04-10T15:47:25.093Z,6.10
2018-04-10T15:49:56.137Z,6.00
2018-04-10T15:52:26.629Z,5.90
2018-04-10T15:54:56.990Z,5.90
2018-04-10T15:57:27.145Z,5.90
2018-04-10T15:59:57.668Z,5.80
2018-04-10T16:02:27.901Z,5.80
2018-04-10T16:04:58.024Z,5.80
2018-04-10T16:07:28.236Z,5.80
2018-04-10T16:09:58.454Z,5.80
2018-04-10T16:12:29.662Z,5.70
2018-04-10T16:15:00.089Z,5.70
2018-04-10T16:17:31.011Z,5.70
2018-04-10T16:20:01.967Z,5.70
2018-04-10T16:22:32.793Z,5.60
2018-04-10T16:25:05.239Z,5.60
2018-04-10T16:27:37.558Z,5.60
2018-04-10T16:30:07.986Z,5.50
2018-04-10T16:32:38.184Z,5.50
2018-04-10T16:35:08.374Z,5.50
2018-04-10T16:37:38.496Z,5.40
2018-04-10T16:40:08.732Z,5.40
2018-04-10T16:42:40.008Z,5.40
2018-04-10T16:45:10.166Z,5.40
2018-04-10T16:47:40.284Z,5.40
2018-04-10T16:50:11.337Z,5.40
2018-04-10T16:52:41.671Z,5.30
2018-04-10T16:55:12.116Z,5.30
2018-04-10T16:57:42.333Z,5.30
2018-04-10T17:00:12.409Z,5.30
2018-04-10T17:02:42.806Z,5.20
2018-04-10T17:05:12.937Z,5.30
2018-04-10T17:07:43.036Z,5.30
2018-04-10T17:10:13.142Z,5.20
2018-04-10T17:12:43.632Z,5.20
2018-04-10T17:15:14.926Z,5.20
2018-04-10T17:17:44.927Z,5.10
2018-04-10T17:20:15.012Z,5.10
2018-04-10T17:22:47.685Z,5.00
2018-04-10T17:49:50.623Z,4.80
2018-04-10T17:52:20.780Z,4.70
2018-04-10T17:58:28.148Z,4.70
2018-04-10T18:01:17.534Z,4.70
2018-04-10T18:07:24.987Z,4.70
2018-04-10T18:10:14.084Z,4.60
2018-04-10T18:19:04.561Z,4.60
2018-04-10T18:21:35.897Z,4.60
2018-04-10T18:24:06.454Z,4.60
2018-04-10T18:29:46.296Z,4.50
2018-04-10T18:32:16.629Z,4.60
2018-04-10T18:34:47.534Z,4.60
2018-04-10T18:37:17.647Z,4.60
2018-04-10T18:39:49.765Z,4.60
2018-04-10T18:42:37.558Z,4.60
2018-04-10T18:48:26.809Z,4.60
2018-04-10T18:51:02.089Z,4.60
2018-04-10T18:59:51.691Z,4.50
2018-04-10T19:02:23.664Z,4.70
2018-04-10T19:04:54.581Z,4.70
2018-04-10T19:10:38.371Z,4.90
2018-04-10T19:13:08.598Z,4.80
2018-04-10T19:15:38.772Z,4.80
2018-04-10T19:20:59.471Z,4.80
2018-04-10T19:23:29.999Z,4.80
2018-04-10T19:29:04.205Z,4.80
2018-04-10T19:38:08.550Z,4.90
2018-04-10T19:40:38.570Z,4.80
2018-04-10T19:43:09.399Z,4.90
2018-04-10T19:45:39.685Z,4.90
2018-04-10T19:48:09.804Z,4.90
2018-04-10T19:50:40.048Z,4.90
2018-04-10T19:53:10.265Z,4.80
2018-04-10T19:55:41.029Z,4.90
2018-04-10T20:01:05.387Z,4.80
2018-04-10T20:03:36.510Z,4.90
2018-04-10T20:12:19.569Z,5.00
2018-04-10T20:14:50.844Z,5.00
2018-04-10T20:17:21.316Z,5.00
2018-04-10T20:19:51.841Z,5.00
2018-04-10T20:22:22.335Z,5.00
2018-04-10T20:24:53.926Z,5.00
2018-04-10T20:27:24.278Z,5.00
2018-04-10T20:29:56.410Z,5.00
2018-04-10T20:35:34.508Z,5.10
2018-04-10T20:38:08.082Z,5.20
2018-04-10T20:40:38.881Z,5.20
2018-04-10T20:43:10.618Z,5.20
2018-04-10T20:45:40.927Z,5.20
2018-04-10T20:48:10.858Z,5.20
2018-04-10T20:50:41.011Z,5.20
2018-04-10T20:53:11.558Z,5.20
2018-04-10T20:55:42.254Z,5.20
2018-04-10T20:58:12.355Z,5.20
2018-04-10T21:00:42.907Z,5.20
2018-04-10T21:03:13.128Z,5.10
2018-04-10T21:05:44.061Z,5.00
2018-04-10T21:08:14.445Z,4.90
2018-04-10T21:10:45.972Z,4.80
2018-04-10T21:13:18.115Z,4.70
2018-04-10T21:15:49.490Z,4.70
2018-04-10T21:18:23.920Z,4.60
2018-04-10T21:20:58.943Z,4.60
2018-04-10T21:23:29.508Z,4.50
2018-04-10T21:26:04.984Z,4.50
2018-04-10T21:28:38.837Z,4.40
2018-04-10T21:31:12.156Z,4.30
2018-04-10T21:33:48.189Z,4.20
2018-04-10T21:36:19.096Z,4.10
2018-04-10T21:38:49.903Z,4.10
2018-04-10T21:41:20.461Z,4.00
2018-04-10T21:43:51.490Z,4.00
2018-04-10T21:46:21.871Z,4.00
2018-04-10T21:48:55.585Z,4.00
2018-04-10T21:51:31.048Z,4.00
2018-04-10T21:59:24.116Z,3.90
2018-04-10T22:01:54.169Z,3.80
2018-04-10T22:04:24.472Z,3.80
2018-04-10T22:06:54.682Z,3.80
2018-04-10T22:09:25.378Z,3.80
2018-04-10T22:11:59.134Z,3.80
2018-04-10T22:14:30.165Z,3.80
2018-04-10T22:17:00.588Z,3.80
2018-04-10T22:19:32.977Z,3.90
2018-04-10T22:22:03.475Z,3.90
2018-04-10T22:24:38.044Z,3.90
2018-04-10T22:27:11.354Z,3.90
2018-04-10T22:29:53.050Z,3.90
2018-04-10T22:32:24.372Z,3.80
2018-04-10T22:34:59.275Z,3.80
2018-04-10T22:37:33.669Z,3.80
2018-04-10T22:40:04.694Z,3.80
2018-04-10T22:42:34.667Z,3.90
2018-04-10T22:45:03.853Z,3.90
2018-04-10T22:47:37.149Z,3.90
2018-04-10T22:50:15.352Z,3.90
2018-04-10T22:52:51.050Z,3.90
2018-04-10T22:55:23.415Z,3.90
2018-04-10T22:57:53.809Z,4.00
2018-04-10T23:00:55.869Z,4.00
2018-04-10T23:03:26.069Z,3.90
2018-04-10T23:05:56.263Z,3.90
2018-04-10T23:08:27.295Z,3.80
2018-04-10T23:11:00.089Z,3.80
2018-04-10T23:13:31.949Z,3.80
2018-04-10T23:16:01.949Z,3.70
2018-04-10T23:18:32.530Z,3.70
2018-04-10T23:21:03.091Z,3.80
2018-04-10T23:23:33.863Z,3.90
2018-04-10T23:26:04.252Z,3.90
2018-04-10T23:28:35.092Z,3.90
2018-04-10T23:31:05.210Z,3.90
2018-04-10T23:33:36.735Z,3.90
2018-04-10T23:36:06.925Z,3.90
2018-04-10T23:38:37.773Z,3.80
2018-04-10T23:41:08.242Z,3.80
2018-04-10T23:43:38.197Z,3.70
2018-04-10T23:46:08.309Z,3.70
2018-04-10T23:48:38.368Z,3.70
2018-04-10T23:51:10.181Z,3.50
2018-04-10T23:53:40.768Z,3.50
2018-04-10T23:56:11.924Z,3.50
2018-04-10T23:58:43.341Z,3.40
